Chef Menteur, Louisiana
Current Conditions -  °F | °C
As of 6:53 AM on Wednesday 22 Oct 2014 (Local Time) from KNEW Reporting Station
Clear Clear  
Wind Chill: 68°   Ceiling: Unl
Heat Index: 68°   Visibility: 10mi
Dew Point: 59°   Wind: 18mph
Humidity: 73%   Direction: 60°ENE
Pressure: 30.05"   Gusts: NA
Location:  29.9961°N, 90.0035°W
Report Text: KNEW 221153Z AUTO 06016KT 10SM CLR 20/15 A3005 RMK AO2 RAB21E53 SLP170 P0000 60000 T02000150 10222 20200 51010 TSNO
Loading
Personal Weather Stations






























Interactive Weather Map
Tropical Storm Tracking
New forecast layout! Learn more

10-Day Weather Forecast

Advertisements
Track Severe Weather on mobile